Sabin, Minnesota
Current Conditions -  °F | °C
As of 2:51 PM on Tuesday 25 Nov 2014 (Local Time) from KJKJ Reporting Station
Overcast Overcast  
Wind Chill: 16°   Ceiling: 3200
Heat Index: 27°   Visibility: 10mi
Dew Point: 19°   Wind: 12mph
Humidity: 74%   Direction: 150°SSE
Pressure: 29.92"   Gusts: NA
Location:  46.78°N, 96.65°W
Report Text: KJKJ 252051Z AUTO 15010KT 10SM OVC032 M03/M07 A2992 RMK AO2
Loading
Personal Weather Stations






























Interactive Weather Map New forecast layout! Learn more

10-Day Weather Forecast

Advertisements
Track Severe Weather on mobile